createdAt,value
2019-04-28T00:01:41.159Z,80.00
2019-04-28T00:04:11.524Z,80.40
2019-04-28T00:06:41.778Z,80.30
2019-04-28T00:09:12.378Z,80.60
2019-04-28T00:11:41.746Z,80.70
2019-04-28T00:14:11.965Z,80.70
2019-04-28T00:16:41.282Z,81.00
2019-04-28T00:19:11.029Z,80.70
2019-04-28T00:21:51.690Z,80.90
2019-04-28T00:24:41.644Z,81.00
2019-04-28T00:27:11.713Z,81.20
2019-04-28T00:29:45.649Z,81.40
2019-04-28T00:32:11.363Z,81.50
2019-04-28T00:34:41.288Z,81.50
2019-04-28T00:37:27.471Z,81.50
2019-04-28T00:39:56.391Z,81.80
2019-04-28T00:42:25.218Z,82.20
2019-04-28T00:44:54.094Z,81.90
2019-04-28T00:47:23.000Z,82.00
2019-04-28T00:49:52.069Z,82.00
2019-04-28T00:52:22.210Z,82.30
2019-04-28T00:54:52.514Z,82.40
2019-04-28T00:57:21.701Z,82.80
2019-04-28T00:59:57.709Z,82.80
2019-04-28T01:02:22.682Z,82.80
2019-04-28T01:04:51.597Z,82.80
2019-04-28T01:07:21.244Z,82.70
2019-04-28T01:09:51.644Z,83.10
2019-04-28T01:12:21.323Z,83.40
2019-04-28T01:14:52.879Z,83.20
2019-04-28T01:17:31.489Z,83.60
2019-04-28T01:20:09.786Z,83.20
2019-04-28T01:22:40.184Z,83.40
2019-04-28T01:25:10.668Z,83.70
2019-04-28T01:27:41.346Z,83.90
2019-04-28T01:30:12.282Z,84.50
2019-04-28T01:32:45.812Z,84.10
2019-04-28T01:35:14.939Z,84.60
2019-04-28T01:37:43.731Z,84.90
2019-04-28T01:40:14.072Z,85.00
2019-04-28T01:42:42.878Z,85.00
2019-04-28T01:45:11.879Z,85.30
2019-04-28T01:47:40.898Z,85.30
2019-04-28T01:50:10.321Z,85.30
2019-04-28T01:52:39.950Z,85.30
2019-04-28T01:55:10.104Z,85.40
2019-04-28T01:57:39.946Z,85.90
2019-04-28T02:00:22.382Z,86.00
2019-04-28T02:02:42.224Z,86.10
2019-04-28T02:05:11.596Z,86.40
2019-04-28T02:07:40.726Z,86.40
2019-04-28T02:10:10.322Z,86.50
2019-04-28T02:12:40.325Z,86.90
2019-04-28T02:15:10.455Z,87.00
2019-04-28T02:17:40.128Z,87.10
2019-04-28T02:20:10.419Z,87.20
2019-04-28T02:22:43.904Z,87.50
2019-04-28T02:25:12.819Z,87.80
2019-04-28T02:27:41.846Z,88.10
2019-04-28T02:30:11.724Z,88.00
2019-04-28T02:32:41.138Z,88.40
2019-04-28T02:35:10.675Z,88.60
2019-04-28T02:37:40.593Z,88.60
2019-04-28T02:40:10.569Z,88.90
2019-04-28T02:42:41.011Z,89.20
2019-04-28T02:45:11.702Z,89.20
2019-04-28T02:47:41.997Z,89.40
2019-04-28T02:50:21.870Z,89.60
2019-04-28T02:53:07.459Z,90.20
2019-04-28T02:55:36.349Z,90.00
2019-04-28T02:58:05.275Z,90.20
2019-04-28T03:00:34.180Z,90.00
2019-04-28T03:03:03.094Z,90.00
2019-04-28T03:05:33.566Z,90.20
2019-04-28T03:08:02.650Z,90.10
2019-04-28T03:10:31.455Z,90.10
2019-04-28T03:13:01.394Z,90.30
2019-04-28T03:15:30.703Z,90.20
2019-04-28T03:18:01.794Z,90.20
2019-04-28T03:20:30.763Z,90.20
2019-04-28T03:23:00.929Z,90.20
2019-04-28T03:25:47.104Z,90.30
2019-04-28T03:28:33.739Z,90.30
2019-04-28T03:31:36.587Z,90.20
2019-04-28T03:33:43.434Z,90.30
2019-04-28T03:36:10.283Z,90.50
2019-04-28T03:38:40.587Z,90.40
2019-04-28T03:41:11.229Z,90.40
2019-04-28T03:43:40.590Z,90.50
2019-04-28T03:46:26.161Z,90.50
2019-04-28T03:48:55.070Z,90.60
2019-04-28T03:51:23.883Z,90.40
2019-04-28T03:53:52.783Z,90.50
2019-04-28T03:56:21.690Z,90.60
2019-04-28T03:58:50.649Z,90.60
2019-04-28T04:01:20.693Z,90.60
2019-04-28T04:03:51.496Z,90.50
2019-04-28T04:06:22.714Z,90.60
2019-04-28T04:08:51.041Z,90.50
2019-04-28T04:11:31.180Z,90.50
2019-04-28T04:14:02.058Z,90.60
2019-04-28T04:16:40.459Z,90.60
2019-04-28T04:19:10.714Z,90.40
2019-04-28T04:21:40.709Z,90.40
2019-04-28T04:24:10.862Z,90.50
2019-04-28T04:26:41.009Z,90.30
2019-04-28T04:29:10.857Z,90.60
2019-04-28T04:31:41.326Z,90.50
2019-04-28T04:34:10.769Z,90.30
2019-04-28T04:36:41.816Z,90.10
2019-04-28T04:39:10.926Z,90.20
2019-04-28T04:41:42.943Z,90.20
2019-04-28T04:44:11.258Z,90.10
2019-04-28T04:46:41.446Z,90.00
2019-04-28T04:49:10.815Z,89.80
2019-04-28T04:51:40.761Z,89.90
2019-04-28T04:54:10.805Z,89.70
2019-04-28T04:56:40.269Z,89.50
2019-04-28T04:59:10.216Z,89.30
2019-04-28T05:01:53.059Z,88.90
2019-04-28T05:04:29.690Z,88.90
2019-04-28T05:06:59.708Z,88.80
2019-04-28T05:09:29.350Z,89.00
2019-04-28T05:11:59.787Z,88.30
2019-04-28T05:14:29.941Z,87.60
2019-04-28T05:17:00.667Z,87.30
2019-04-28T05:19:29.847Z,87.20
2019-04-28T05:21:59.994Z,86.30
2019-04-28T05:24:40.253Z,86.50
2019-04-28T05:27:09.909Z,86.00
2019-04-28T05:29:39.824Z,85.70
2019-04-28T05:32:10.826Z,85.20
2019-04-28T05:34:46.341Z,85.00
2019-04-28T05:37:10.780Z,84.50
2019-04-28T05:39:40.504Z,84.50
2019-04-28T05:42:11.333Z,84.60
2019-04-28T05:44:40.914Z,84.10
2019-04-28T05:47:10.061Z,84.00
2019-04-28T05:49:42.941Z,84.00
2019-04-28T05:52:30.018Z,83.30
2019-04-28T05:55:00.714Z,83.10
2019-04-28T05:57:31.152Z,82.60
2019-04-28T06:00:03.599Z,82.00
2019-04-28T06:02:56.465Z,81.10
2019-04-28T06:05:19.992Z,80.50
2019-04-28T06:07:50.616Z,79.30
2019-04-28T06:10:20.193Z,79.90
2019-04-28T06:12:49.600Z,78.40
2019-04-28T06:15:20.337Z,78.10
2019-04-28T06:17:49.848Z,77.60
2019-04-28T06:20:20.169Z,76.60
2019-04-28T06:22:49.194Z,75.30
2019-04-28T06:25:18.225Z,74.10
2019-04-28T06:27:47.007Z,73.70
2019-04-28T06:30:16.318Z,72.70
2019-04-28T06:32:45.233Z,72.20
2019-04-28T06:35:14.124Z,71.30
2019-04-28T06:37:43.053Z,71.10
2019-04-28T06:40:11.955Z,70.80
2019-04-28T06:42:40.864Z,67.70
2019-04-28T06:45:14.328Z,66.60
2019-04-28T06:47:43.182Z,65.30
2019-04-28T06:50:12.182Z,63.60
2019-04-28T06:52:41.102Z,62.30
2019-04-28T06:55:10.007Z,60.40
2019-04-28T06:57:38.792Z,59.40
2019-04-28T07:00:07.916Z,58.20
2019-04-28T07:02:36.834Z,56.90
2019-04-28T07:05:06.649Z,55.30
2019-04-28T07:07:35.678Z,53.10
2019-04-28T07:10:07.138Z,50.60
2019-04-28T07:12:35.943Z,49.60
2019-04-28T07:15:05.925Z,48.20
2019-04-28T07:17:34.727Z,46.10
2019-04-28T07:20:09.015Z,46.50
2019-04-28T07:22:37.921Z,44.60
2019-04-28T07:25:07.199Z,45.00
2019-04-28T07:27:36.047Z,43.20
2019-04-28T07:30:07.227Z,43.30
2019-04-28T07:32:35.194Z,42.70
2019-04-28T07:35:05.096Z,42.00
2019-04-28T07:37:34.030Z,40.90
2019-04-28T07:40:02.924Z,41.10
2019-04-28T07:42:31.742Z,41.30
2019-04-28T07:45:00.651Z,41.00
2019-04-28T07:47:29.562Z,41.10
2019-04-28T07:49:58.471Z,41.10
2019-04-28T07:52:29.125Z,41.00
2019-04-28T07:54:58.020Z,40.40
2019-04-28T07:57:26.911Z,39.10
2019-04-28T07:59:55.716Z,38.60
2019-04-28T08:02:24.744Z,38.50
2019-04-28T08:04:53.655Z,38.00
2019-04-28T08:07:22.457Z,37.90
2019-04-28T08:09:51.477Z,37.00
2019-04-28T08:12:20.275Z,36.80
2019-04-28T08:14:49.080Z,36.20
2019-04-28T08:17:18.089Z,35.20
2019-04-28T08:19:46.997Z,35.20
2019-04-28T08:22:15.917Z,34.20
2019-04-28T08:24:44.913Z,33.10
2019-04-28T08:27:13.683Z,32.40
2019-04-28T08:29:42.525Z,32.50
2019-04-28T08:32:21.875Z,32.40
2019-04-28T08:34:50.883Z,32.10
2019-04-28T08:37:19.790Z,31.30
2019-04-28T08:39:48.595Z,30.80
2019-04-28T08:42:17.504Z,30.20
2019-04-28T08:44:46.311Z,30.00
2019-04-28T08:47:15.216Z,29.60
2019-04-28T08:49:44.228Z,29.40
2019-04-28T08:52:13.031Z,30.10
2019-04-28T08:54:41.927Z,30.00
2019-04-28T08:57:10.745Z,29.50
2019-04-28T08:59:40.572Z,29.80
2019-04-28T09:02:09.688Z,29.80
2019-04-28T09:04:38.492Z,29.30
2019-04-28T09:07:07.298Z,28.80
2019-04-28T09:09:36.209Z,29.10
2019-04-28T09:12:05.420Z,27.90
2019-04-28T09:14:34.329Z,28.20
2019-04-28T09:17:04.221Z,28.20
2019-04-28T09:19:33.069Z,30.00
2019-04-28T09:22:02.078Z,29.50
2019-04-28T09:24:30.986Z,29.00
2019-04-28T09:26:59.999Z,28.40
2019-04-28T09:29:28.798Z,28.60
2019-04-28T09:31:57.705Z,27.40
2019-04-28T09:34:28.509Z,28.10
2019-04-28T09:36:57.163Z,27.10
2019-04-28T09:39:44.081Z,27.20
2019-04-28T09:42:33.048Z,27.40
2019-04-28T09:45:03.696Z,27.90
2019-04-28T09:47:32.499Z,28.00
2019-04-28T09:50:01.407Z,28.40
2019-04-28T09:52:30.321Z,29.10
2019-04-28T09:54:59.328Z,29.10
2019-04-28T09:57:28.236Z,29.70
2019-04-28T09:59:57.142Z,29.40
2019-04-28T10:02:25.998Z,29.60
2019-04-28T10:04:54.957Z,28.60
2019-04-28T10:07:23.968Z,29.30
2019-04-28T10:09:52.874Z,29.30
2019-04-28T10:12:27.206Z,27.70
2019-04-28T10:14:52.331Z,27.40
2019-04-28T10:17:21.237Z,27.40
2019-04-28T10:19:50.128Z,27.40
2019-04-28T10:22:19.053Z,27.50
2019-04-28T10:24:48.064Z,29.20
2019-04-28T10:27:16.866Z,30.90
2019-04-28T10:29:45.879Z,30.70
2019-04-28T10:32:14.892Z,31.70
2019-04-28T10:34:54.365Z,31.80
2019-04-28T10:37:14.237Z,32.30
2019-04-28T10:39:44.785Z,33.60
2019-04-28T10:42:13.692Z,33.40
2019-04-28T10:44:44.238Z,30.80
2019-04-28T10:47:13.135Z,31.90
2019-04-28T10:49:42.158Z,33.30
2019-04-28T10:52:11.045Z,31.00
2019-04-28T10:54:40.078Z,31.50
2019-04-28T10:57:08.982Z,32.60
2019-04-28T10:59:37.995Z,33.90
2019-04-28T11:02:07.002Z,35.70
2019-04-28T11:04:40.312Z,35.10
2019-04-28T11:07:14.336Z,35.70
2019-04-28T11:09:50.730Z,37.00
2019-04-28T11:12:21.366Z,37.80
2019-04-28T11:14:50.248Z,38.30
2019-04-28T11:17:19.995Z,39.10
2019-04-28T11:19:49.005Z,40.10
2019-04-28T11:22:18.225Z,39.10
2019-04-28T11:24:47.237Z,39.20
2019-04-28T11:27:16.659Z,39.50
2019-04-28T11:29:45.665Z,40.00
2019-04-28T11:32:16.011Z,40.80
2019-04-28T11:34:55.349Z,41.10
2019-04-28T11:37:24.361Z,41.30
2019-04-28T11:39:53.265Z,41.30
2019-04-28T11:42:22.172Z,40.70
2019-04-28T11:44:51.082Z,40.40
2019-04-28T11:53:15.737Z,41.80
2019-04-28T11:55:44.643Z,41.50
2019-04-28T11:58:14.978Z,42.20
2019-04-28T12:00:43.887Z,42.70
2019-04-28T12:03:13.117Z,42.20
2019-04-28T12:05:43.753Z,41.50
2019-04-28T12:08:12.554Z,41.50
2019-04-28T12:10:58.354Z,41.50
2019-04-28T12:13:44.143Z,42.00
2019-04-28T12:16:30.658Z,42.10
2019-04-28T12:19:17.370Z,43.30
2019-04-28T12:21:46.279Z,43.10
2019-04-28T12:24:15.185Z,42.60
2019-04-28T12:26:44.093Z,42.30
2019-04-28T12:29:13.001Z,42.00
2019-04-28T12:31:41.809Z,42.10
2019-04-28T12:34:10.817Z,42.10
2019-04-28T12:36:39.825Z,42.60
2019-04-28T12:39:09.245Z,43.50
2019-04-28T12:41:38.051Z,43.50
2019-04-28T12:44:06.856Z,43.20
2019-04-28T12:46:35.758Z,43.10
2019-04-28T12:49:23.010Z,43.40
2019-04-28T12:51:52.106Z,43.10
2019-04-28T12:54:22.547Z,43.10
2019-04-28T12:56:51.352Z,43.30
2019-04-28T12:59:21.901Z,42.70
2019-04-28T13:01:55.616Z,42.60
2019-04-28T13:04:26.074Z,42.70
2019-04-28T13:07:02.349Z,42.80
2019-04-28T13:09:31.333Z,43.00
2019-04-28T13:12:02.030Z,43.00
2019-04-28T13:14:30.901Z,42.60
2019-04-28T13:16:59.911Z,43.10
2019-04-28T13:19:28.720Z,43.00
2019-04-28T13:21:57.627Z,43.00
2019-04-28T13:24:26.435Z,43.00
2019-04-28T13:26:55.442Z,42.90
2019-04-28T13:29:24.342Z,42.00
2019-04-28T13:31:53.154Z,42.40
2019-04-28T13:34:23.726Z,41.70
2019-04-28T13:36:52.510Z,41.80
2019-04-28T13:39:31.856Z,41.90
2019-04-28T13:42:00.658Z,41.50
2019-04-28T13:44:49.525Z,42.10
2019-04-28T13:47:18.474Z,42.20
2019-04-28T13:49:48.977Z,42.20
2019-04-28T13:52:17.988Z,41.80
2019-04-28T13:54:50.056Z,42.30
2019-04-28T13:57:18.975Z,42.50
2019-04-28T13:59:49.520Z,42.50
2019-04-28T14:02:36.545Z,42.70
2019-04-28T14:05:16.793Z,43.20
2019-04-28T14:07:45.716Z,43.20
2019-04-28T14:10:14.538Z,42.90
2019-04-28T14:12:43.470Z,42.60
2019-04-28T14:15:12.878Z,43.10
2019-04-28T14:17:41.655Z,43.20
2019-04-28T14:20:10.567Z,43.30
2019-04-28T14:22:39.418Z,44.10
2019-04-28T14:25:08.643Z,43.20
2019-04-28T14:27:37.695Z,43.30
2019-04-28T14:30:07.831Z,44.00
2019-04-28T14:32:36.737Z,43.50
2019-04-28T14:35:06.379Z,44.00
2019-04-28T14:37:35.274Z,44.50
2019-04-28T14:40:08.301Z,44.60
2019-04-28T14:42:37.182Z,43.80
2019-04-28T14:45:08.018Z,44.10
2019-04-28T14:47:37.077Z,44.00
2019-04-28T14:50:06.842Z,43.80
2019-04-28T14:52:35.676Z,43.10
2019-04-28T14:55:06.941Z,43.50
2019-04-28T14:57:37.227Z,43.70
2019-04-28T15:00:11.513Z,44.50
2019-04-28T15:03:00.478Z,44.80
2019-04-28T15:05:47.599Z,45.00
2019-04-28T15:08:18.146Z,44.50
2019-04-28T15:10:51.352Z,44.60
2019-04-28T15:13:21.488Z,44.60
2019-04-28T15:15:50.563Z,44.60
2019-04-28T15:18:19.785Z,44.60
2019-04-28T15:20:48.741Z,44.10
2019-04-28T15:23:17.533Z,43.50
2019-04-28T15:25:46.538Z,43.10
2019-04-28T15:28:15.429Z,42.90
2019-04-28T15:30:44.257Z,42.60
2019-04-28T15:33:13.162Z,42.50
2019-04-28T15:35:42.072Z,42.30
2019-04-28T15:38:10.858Z,41.90
2019-04-28T15:40:39.892Z,42.30
2019-04-28T15:43:08.894Z,42.30
2019-04-28T15:45:37.783Z,42.70
2019-04-28T15:48:06.618Z,43.40
2019-04-28T15:50:35.515Z,43.90
2019-04-28T15:53:04.426Z,44.10
2019-04-28T15:55:37.835Z,43.50
2019-04-28T15:58:24.959Z,43.20
2019-04-28T16:00:53.968Z,43.80
2019-04-28T16:03:22.984Z,43.80
2019-04-28T16:05:51.783Z,43.70
2019-04-28T16:08:20.590Z,43.30
2019-04-28T16:10:49.395Z,44.30
2019-04-28T16:13:18.305Z,43.60
2019-04-28T16:15:47.517Z,43.20
2019-04-28T16:18:16.427Z,43.30
2019-04-28T16:20:45.231Z,42.30
2019-04-28T16:23:14.043Z,41.90
2019-04-28T16:25:43.049Z,41.60
2019-04-28T16:28:12.346Z,41.50
2019-04-28T16:30:41.173Z,41.50
2019-04-28T16:33:09.976Z,41.30
2019-04-28T16:35:38.884Z,40.90
2019-04-28T16:38:07.689Z,40.60
2019-04-28T16:40:37.210Z,40.80
2019-04-28T16:43:06.117Z,40.60
2019-04-28T16:45:34.906Z,40.70
2019-04-28T16:48:03.834Z,40.20
2019-04-28T16:50:32.588Z,39.80
2019-04-28T16:53:01.552Z,40.30
2019-04-28T16:55:31.967Z,40.30
2019-04-28T16:58:11.948Z,39.90
2019-04-28T17:00:48.226Z,39.50
2019-04-28T17:03:17.532Z,39.50
2019-04-28T17:05:46.450Z,38.80
2019-04-28T17:08:15.459Z,39.00
2019-04-28T17:10:44.469Z,38.10
2019-04-28T17:13:13.273Z,38.60
2019-04-28T17:15:42.191Z,38.80
2019-04-28T17:18:10.978Z,39.10
2019-04-28T17:20:39.801Z,39.10
2019-04-28T17:23:08.593Z,39.30
2019-04-28T17:25:37.488Z,39.70
2019-04-28T17:28:07.847Z,40.00
2019-04-28T17:30:36.848Z,40.40
2019-04-28T17:33:05.765Z,40.40
2019-04-28T17:35:34.674Z,40.40
2019-04-28T17:38:06.634Z,40.60
2019-04-28T17:40:34.739Z,40.40
2019-04-28T17:43:03.547Z,40.10
2019-04-28T17:45:32.455Z,40.30
2019-04-28T17:48:03.105Z,40.10
2019-04-28T17:50:32.116Z,40.20
2019-04-28T17:53:01.020Z,40.50
2019-04-28T17:55:29.968Z,40.50
2019-04-28T17:57:58.840Z,40.40
2019-04-28T18:00:35.524Z,40.50
2019-04-28T18:03:22.441Z,40.70
2019-04-28T18:05:58.618Z,40.70
2019-04-28T18:08:27.830Z,40.70
2019-04-28T18:10:56.636Z,40.90
2019-04-28T18:13:25.444Z,41.10
2019-04-28T18:16:12.362Z,41.00
2019-04-28T18:18:49.098Z,41.10
2019-04-28T18:21:18.057Z,41.20
2019-04-28T18:23:46.966Z,41.00
2019-04-28T18:26:15.979Z,41.10
2019-04-28T18:28:44.985Z,41.30
2019-04-28T18:31:15.527Z,41.30
2019-04-28T18:34:02.253Z,41.50
2019-04-28T18:36:48.144Z,41.50
2019-04-28T18:39:27.589Z,41.50
2019-04-28T18:42:07.348Z,41.30
2019-04-28T18:44:36.260Z,41.40
2019-04-28T18:47:05.265Z,41.30
2019-04-28T18:49:34.158Z,41.20
2019-04-28T18:52:03.088Z,41.10
2019-04-28T18:54:31.992Z,41.40
2019-04-28T18:57:00.897Z,41.50
2019-04-28T18:59:29.807Z,41.70
2019-04-28T19:02:03.521Z,41.80
2019-04-28T19:04:32.433Z,41.90
2019-04-28T19:07:05.221Z,42.00
2019-04-28T19:09:38.643Z,42.00
2019-04-28T19:12:15.235Z,42.20
2019-04-28T19:14:49.046Z,42.50
2019-04-28T19:17:25.505Z,42.50
2019-04-28T19:19:54.328Z,42.60
2019-04-28T19:22:23.239Z,42.80
2019-04-28T19:24:52.139Z,42.90
2019-04-28T19:27:21.052Z,43.00
2019-04-28T19:29:49.848Z,42.90
2019-04-28T19:32:18.767Z,43.20
2019-04-28T19:34:47.677Z,43.30
2019-04-28T19:37:16.582Z,43.40
2019-04-28T19:39:45.480Z,43.50
2019-04-28T19:42:14.294Z,43.60
2019-04-28T19:44:43.200Z,43.90
2019-04-28T19:47:12.110Z,44.00
2019-04-28T19:49:41.017Z,44.30
2019-04-28T19:54:40.171Z,60.80
2019-04-28T19:57:10.609Z,48.70
2019-04-28T19:59:57.322Z,44.90
2019-04-28T20:02:27.868Z,45.20
2019-04-28T20:04:56.762Z,45.00
2019-04-28T20:07:25.580Z,45.10
2019-04-28T20:09:54.487Z,45.30
2019-04-28T20:12:23.397Z,45.60
2019-04-28T20:14:52.204Z,45.50
2019-04-28T20:17:21.111Z,45.60
2019-04-28T20:19:49.917Z,45.80
2019-04-28T20:22:18.821Z,46.00
2019-04-28T20:24:47.646Z,46.10
2019-04-28T20:27:16.433Z,46.30
2019-04-28T20:29:45.240Z,46.50
2019-04-28T20:32:15.844Z,46.90
2019-04-28T20:34:45.001Z,47.40
2019-04-28T20:37:15.545Z,47.80
2019-04-28T20:39:46.089Z,48.30
2019-04-28T20:42:16.533Z,48.80
2019-04-28T20:44:45.446Z,48.80
2019-04-28T20:47:14.449Z,48.80
2019-04-28T20:49:43.259Z,48.90
2019-04-28T20:52:12.062Z,48.80
2019-04-28T20:54:40.865Z,49.10
2019-04-28T20:57:09.675Z,49.20
2019-04-28T20:59:38.581Z,49.40
2019-04-28T21:02:08.448Z,49.50
2019-04-28T21:04:37.319Z,49.30
2019-04-28T21:07:06.125Z,50.10
2019-04-28T21:09:35.034Z,49.60
2019-04-28T21:12:03.821Z,49.90
2019-04-28T21:14:32.641Z,49.90
2019-04-28T21:17:01.549Z,49.90
2019-04-28T21:19:30.460Z,50.00
2019-04-28T21:21:59.263Z,50.00
2019-04-28T21:24:28.170Z,50.00
2019-04-28T21:26:56.977Z,50.10
2019-04-28T21:29:25.881Z,50.00
2019-04-28T21:31:54.691Z,50.30
2019-04-28T21:34:23.492Z,50.50
2019-04-28T21:36:52.401Z,50.60
2019-04-28T21:39:21.208Z,50.50
2019-04-28T21:41:50.217Z,50.50
2019-04-28T21:44:23.423Z,50.80
2019-04-28T21:46:54.072Z,50.80
2019-04-28T21:49:24.618Z,50.90
2019-04-28T21:51:53.374Z,51.00
2019-04-28T21:54:22.330Z,50.80
2019-04-28T21:56:51.236Z,51.00
2019-04-28T21:59:20.146Z,50.90
2019-04-28T22:01:49.052Z,50.80
2019-04-28T22:04:18.065Z,50.80
2019-04-28T22:06:46.970Z,50.90
2019-04-28T22:09:16.418Z,50.90
2019-04-28T22:11:45.297Z,50.70
2019-04-28T22:14:14.204Z,50.80
2019-04-28T22:16:43.015Z,50.50
2019-04-28T22:19:12.023Z,50.80
2019-04-28T22:21:40.927Z,50.60
2019-04-28T22:24:11.374Z,50.60
2019-04-28T22:26:44.476Z,50.80
2019-04-28T22:29:14.190Z,50.60
2019-04-28T22:31:43.904Z,50.70
2019-04-28T22:34:14.627Z,50.50
2019-04-28T22:36:46.646Z,50.60
2019-04-28T22:39:16.160Z,50.60
2019-04-28T22:41:44.984Z,50.60
2019-04-28T22:44:14.887Z,50.70
2019-04-28T22:46:43.822Z,51.00
2019-04-28T22:49:12.835Z,51.40
2019-04-28T22:51:41.716Z,51.30
2019-04-28T22:54:18.328Z,51.00
2019-04-28T22:56:48.766Z,51.20
2019-04-28T22:59:28.320Z,51.40
2019-04-28T23:02:04.933Z,51.20
2019-04-28T23:04:35.446Z,51.50
2019-04-28T23:07:04.557Z,51.50
2019-04-28T23:09:33.550Z,51.70
2019-04-28T23:12:02.401Z,51.70
2019-04-28T23:14:31.280Z,51.80
2019-04-28T23:17:00.181Z,51.70
2019-04-28T23:19:30.638Z,51.80
2019-04-28T23:22:13.354Z,51.80
2019-04-28T23:24:42.150Z,51.90
2019-04-28T23:27:12.163Z,52.20
2019-04-28T23:29:41.002Z,52.20
2019-04-28T23:32:11.642Z,52.40
2019-04-28T23:34:40.455Z,52.50
2019-04-28T23:37:09.257Z,52.40
2019-04-28T23:39:38.166Z,52.60
2019-04-28T23:42:08.569Z,52.60
2019-04-28T23:44:37.415Z,52.70
2019-04-28T23:47:07.652Z,53.00
2019-04-28T23:49:36.457Z,53.00
2019-04-28T23:52:07.004Z,52.70
2019-04-28T23:54:37.446Z,52.70
2019-04-28T23:57:07.373Z,52.90
2019-04-28T23:59:36.489Z,53.00
